createdAt,value
2018-08-18T00:01:19.360Z,100789.63
2018-08-18T00:03:49.946Z,100791.50
2018-08-18T00:06:19.008Z,100787.89
2018-08-18T00:09:02.218Z,100784.20
2018-08-18T00:11:31.932Z,100783.84
2018-08-18T00:14:00.836Z,100781.89
2018-08-18T00:16:29.602Z,100779.33
2018-08-18T00:19:00.147Z,100779.16
2018-08-18T00:21:31.658Z,100780.72
2018-08-18T00:24:06.298Z,100775.28
2018-08-18T00:26:35.067Z,100766.59
2018-08-18T00:29:04.308Z,100770.23
2018-08-18T00:31:33.156Z,100777.71
2018-08-18T00:34:01.907Z,100769.55
2018-08-18T00:36:32.680Z,100776.80
2018-08-18T00:39:01.643Z,100768.72
2018-08-18T00:41:31.751Z,100771.94
2018-08-18T00:44:00.989Z,100774.36
2018-08-18T00:46:32.185Z,100773.83
2018-08-18T00:49:01.971Z,100778.31
2018-08-18T00:51:34.653Z,100787.66
2018-08-18T00:54:05.640Z,100784.56
2018-08-18T00:56:36.657Z,100777.98
2018-08-18T00:59:05.517Z,100789.80
2018-08-18T01:01:34.382Z,100790.55
2018-08-18T01:04:08.267Z,100784.77
2018-08-18T01:06:41.320Z,100783.63
2018-08-18T01:09:11.814Z,100789.54
2018-08-18T01:11:41.283Z,100791.62
2018-08-18T01:14:16.841Z,100792.45
2018-08-18T01:16:52.696Z,100799.40
2018-08-18T01:19:22.812Z,100797.69
2018-08-18T01:21:56.664Z,100799.77
2018-08-18T01:24:25.696Z,100800.72
2018-08-18T01:26:54.642Z,100800.93
2018-08-18T01:29:23.682Z,100802.48
2018-08-18T01:31:52.427Z,100803.74
2018-08-18T01:34:21.518Z,100802.34
2018-08-18T01:36:50.348Z,100799.03
2018-08-18T01:39:21.393Z,100800.07
2018-08-18T01:41:50.103Z,100803.50
2018-08-18T01:44:25.258Z,100802.27
2018-08-18T01:46:55.348Z,100806.22
2018-08-18T01:49:27.239Z,100799.70
2018-08-18T01:51:57.336Z,100800.44
2018-08-18T01:54:26.825Z,100795.69
2018-08-18T01:57:02.247Z,100791.25
2018-08-18T01:59:31.051Z,100793.88
2018-08-18T02:02:00.439Z,100792.84
2018-08-18T02:04:29.548Z,100792.53
2018-08-18T02:07:24.043Z,100787.88
2018-08-18T02:09:53.043Z,100787.69
2018-08-18T02:12:22.687Z,100782.73
2018-08-18T02:14:51.907Z,100791.05
2018-08-18T02:17:24.036Z,100792.30
2018-08-18T02:19:53.530Z,100789.81
2018-08-18T02:22:23.088Z,100786.52
2018-08-18T02:24:51.910Z,100779.90
2018-08-18T02:27:20.751Z,100786.32
2018-08-18T02:30:01.560Z,100785.19
2018-08-18T02:32:31.723Z,100790.50
2018-08-18T02:35:00.489Z,100787.81
2018-08-18T02:37:30.124Z,100789.78
2018-08-18T02:39:59.983Z,100794.03
2018-08-18T02:42:28.748Z,100791.45
2018-08-18T02:44:57.535Z,100797.87
2018-08-18T02:47:27.108Z,100798.32
2018-08-18T02:49:56.394Z,100795.02
2018-08-18T02:52:26.899Z,100799.16
2018-08-18T02:55:03.488Z,100799.16
2018-08-18T02:57:37.815Z,100800.71
2018-08-18T03:00:11.820Z,100802.27
2018-08-18T03:02:41.175Z,100804.06
2018-08-18T03:05:09.967Z,100800.75
2018-08-18T03:07:43.448Z,100808.41
2018-08-18T03:10:17.420Z,100798.89
2018-08-18T03:12:47.292Z,100799.62
2018-08-18T03:16:23.810Z,100796.93
2018-08-18T03:18:53.782Z,100805.96
2018-08-18T03:21:28.755Z,100808.55
2018-08-18T03:24:08.465Z,100807.62
2018-08-18T03:26:42.466Z,100805.03
2018-08-18T03:29:11.860Z,100805.79
2018-08-18T03:31:41.158Z,100808.38
2018-08-18T03:34:10.481Z,100802.89
2018-08-18T03:36:40.695Z,100814.37
2018-08-18T03:39:22.832Z,100814.05
2018-08-18T03:41:53.422Z,100803.64
2018-08-18T03:44:22.219Z,100798.69
2018-08-18T03:46:51.822Z,100806.23
2018-08-18T03:49:21.408Z,100813.64
2018-08-18T03:51:51.958Z,100814.13
2018-08-18T03:54:21.172Z,100813.99
2018-08-18T03:56:50.617Z,100808.57
2018-08-18T03:59:20.133Z,100813.28
2018-08-18T04:01:54.963Z,100819.05
2018-08-18T04:04:25.536Z,100818.70
2018-08-18T04:06:56.238Z,100833.48
2018-08-18T04:09:29.943Z,100828.88
2018-08-18T04:12:01.008Z,100827.83
2018-08-18T04:14:33.876Z,100829.85
2018-08-18T04:17:03.415Z,100835.42
2018-08-18T04:19:32.180Z,100831.89
2018-08-18T04:22:01.042Z,100831.55
2018-08-18T04:24:34.978Z,100832.57
2018-08-18T04:27:03.897Z,100833.64
2018-08-18T04:29:32.637Z,100834.66
2018-08-18T04:32:02.155Z,100841.23
2018-08-18T04:34:30.899Z,100851.16
2018-08-18T04:37:01.239Z,100850.78
2018-08-18T04:39:30.717Z,100849.92
2018-08-18T04:41:59.427Z,100846.03
2018-08-18T04:44:28.147Z,100852.95
2018-08-18T04:46:58.006Z,100852.66
2018-08-18T04:49:27.240Z,100852.41
2018-08-18T04:51:56.639Z,100860.20
2018-08-18T04:54:25.799Z,100858.30
2018-08-18T04:56:55.416Z,100857.26
2018-08-18T04:59:24.269Z,100851.56
2018-08-18T05:01:52.990Z,100855.25
2018-08-18T05:04:22.296Z,100856.03
2018-08-18T05:06:51.107Z,100857.63
2018-08-18T05:09:19.928Z,100853.49
2018-08-18T05:11:49.910Z,100855.30
2018-08-18T05:14:18.886Z,100862.05
2018-08-18T05:16:49.292Z,100863.33
2018-08-18T05:19:18.358Z,100856.56
2018-08-18T05:21:48.267Z,100857.33
2018-08-18T05:24:25.542Z,100856.26
2018-08-18T05:26:55.542Z,100859.76
2018-08-18T05:29:24.249Z,100861.91
2018-08-18T05:31:54.296Z,100869.41
2018-08-18T05:34:23.022Z,100866.44
2018-08-18T05:36:51.808Z,100864.56
2018-08-18T05:39:21.836Z,100864.25
2018-08-18T05:41:50.729Z,100863.38
2018-08-18T05:44:20.530Z,100859.88
2018-08-18T05:46:50.383Z,100862.30
2018-08-18T05:49:20.223Z,100848.22
2018-08-18T05:51:50.896Z,100850.20
2018-08-18T05:54:24.014Z,100840.70
2018-08-18T05:56:53.434Z,100848.22
2018-08-18T05:59:22.222Z,100840.55
2018-08-18T06:01:51.199Z,100840.98
2018-08-18T06:04:21.675Z,100839.58
2018-08-18T06:06:51.413Z,100845.94
2018-08-18T06:09:21.217Z,100846.09
2018-08-18T06:11:50.603Z,100849.00
2018-08-18T06:14:19.921Z,100852.12
2018-08-18T06:16:49.527Z,100847.67
2018-08-18T06:19:18.704Z,100846.05
2018-08-18T06:21:47.751Z,100843.00
2018-08-18T06:24:17.673Z,100841.04
2018-08-18T06:26:46.732Z,100839.74
2018-08-18T06:29:17.118Z,100840.11
2018-08-18T06:31:58.463Z,100842.92
2018-08-18T06:34:29.029Z,100837.88
2018-08-18T06:36:57.936Z,100841.45
2018-08-18T06:39:28.411Z,100836.48
2018-08-18T06:41:57.367Z,100841.42
2018-08-18T06:44:27.907Z,100836.77
2018-08-18T06:46:57.863Z,100847.61
2018-08-18T06:49:26.917Z,100840.99
2018-08-18T06:51:56.628Z,100827.26
2018-08-18T06:54:30.661Z,100836.42
2018-08-18T06:56:59.907Z,100831.01
2018-08-18T06:59:28.700Z,100834.45
2018-08-18T07:01:57.518Z,100830.28
2018-08-18T07:04:27.546Z,100833.67
2018-08-18T07:06:56.493Z,100831.07
2018-08-18T07:09:25.225Z,100830.37
2018-08-18T07:11:54.029Z,100835.06
2018-08-18T07:14:22.735Z,100825.94
2018-08-18T07:16:52.658Z,100826.87
2018-08-18T07:19:21.439Z,100827.83
2018-08-18T07:21:50.257Z,100826.25
2018-08-18T07:24:19.094Z,100817.50
2018-08-18T07:26:49.095Z,100816.64
2018-08-18T07:29:18.156Z,100813.24
2018-08-18T07:31:47.335Z,100813.64
2018-08-18T07:34:16.306Z,100809.99
2018-08-18T07:36:45.510Z,100818.38
2018-08-18T07:39:15.345Z,100808.38
2018-08-18T07:41:44.223Z,100806.00
2018-08-18T07:44:13.055Z,100816.15
2018-08-18T07:46:42.724Z,100812.61
2018-08-18T07:49:12.148Z,100804.98
2018-08-18T07:51:41.803Z,100795.80
2018-08-18T07:54:11.240Z,100808.12
2018-08-18T07:56:40.480Z,100804.97
2018-08-18T07:59:09.301Z,100796.78
2018-08-18T08:01:38.727Z,100799.23
2018-08-18T08:04:08.172Z,100791.62
2018-08-18T08:06:36.949Z,100803.05
2018-08-18T08:09:06.349Z,100800.34
2018-08-18T08:11:35.312Z,100790.28
2018-08-18T08:14:04.211Z,100793.09
2018-08-18T08:16:33.712Z,100795.93
2018-08-18T08:19:02.496Z,100785.14
2018-08-18T08:21:31.274Z,100780.06
2018-08-18T08:24:00.104Z,100786.95
2018-08-18T08:26:29.072Z,100784.01
2018-08-18T08:28:58.137Z,100777.77
2018-08-18T08:31:26.930Z,100778.61
2018-08-18T08:33:55.752Z,100772.11
2018-08-18T08:36:24.547Z,100780.59
2018-08-18T08:38:57.308Z,100774.05
2018-08-18T08:41:28.592Z,100781.39
2018-08-18T08:43:57.459Z,100771.33
2018-08-18T08:46:27.015Z,100777.89
2018-08-18T08:48:58.463Z,100773.00
2018-08-18T08:51:28.122Z,100756.64
2018-08-18T08:53:59.227Z,100756.11
2018-08-18T08:56:47.247Z,100750.64
2018-08-18T08:59:16.169Z,100748.16
2018-08-18T09:01:44.991Z,100749.28
2018-08-18T09:04:14.421Z,100747.38
2018-08-18T09:06:48.171Z,100749.55
2018-08-18T09:09:18.049Z,100749.28
2018-08-18T09:11:47.043Z,100739.72
2018-08-18T09:14:16.787Z,100734.83
2018-08-18T09:16:46.596Z,100738.11
2018-08-18T09:19:15.490Z,100732.09
2018-08-18T09:21:49.504Z,100730.97
2018-08-18T09:24:19.237Z,100732.91
2018-08-18T09:26:54.849Z,100729.92
2018-08-18T09:29:24.074Z,100717.07
2018-08-18T09:31:55.897Z,100723.92
2018-08-18T09:34:24.662Z,100721.44
2018-08-18T09:36:53.774Z,100713.00
2018-08-18T09:39:34.264Z,100711.08
2018-08-18T09:42:08.400Z,100714.63
2018-08-18T09:44:44.537Z,100716.00
2018-08-18T09:47:14.811Z,100709.72
2018-08-18T09:49:43.834Z,100708.80
2018-08-18T09:54:41.761Z,100705.18
2018-08-18T09:57:11.544Z,100706.80
2018-08-18T09:59:40.375Z,100703.52
2018-08-18T10:02:11.348Z,100704.55
2018-08-18T10:04:40.157Z,100701.31
2018-08-18T10:07:09.015Z,100694.24
2018-08-18T10:09:37.824Z,100698.37
2018-08-18T10:12:07.557Z,100701.73
2018-08-18T10:14:36.677Z,100696.88
2018-08-18T10:17:05.931Z,100688.72
2018-08-18T10:19:34.751Z,100675.34
2018-08-18T10:22:03.624Z,100682.17
2018-08-18T10:24:32.390Z,100679.70
2018-08-18T10:27:05.677Z,100680.49
2018-08-18T10:29:34.664Z,100671.68
2018-08-18T10:32:03.503Z,100677.91
2018-08-18T10:34:33.479Z,100665.83
2018-08-18T10:37:06.236Z,100666.88
2018-08-18T10:39:36.706Z,100664.94
2018-08-18T10:42:11.876Z,100670.95
2018-08-18T10:44:47.155Z,100666.33
2018-08-18T10:47:19.184Z,100675.67
2018-08-18T10:49:58.872Z,100657.32
2018-08-18T10:52:39.880Z,100666.30
2018-08-18T10:55:10.735Z,100673.28
2018-08-18T10:57:52.428Z,100682.17
2018-08-18T11:00:23.303Z,100671.55
2018-08-18T11:02:53.915Z,100667.76
2018-08-18T11:05:23.594Z,100671.53
2018-08-18T11:07:58.427Z,100672.97
2018-08-18T11:10:29.112Z,100678.70
2018-08-18T11:12:58.076Z,100665.81
2018-08-18T11:15:27.652Z,100667.95
2018-08-18T11:17:57.015Z,100663.03
2018-08-18T11:20:27.142Z,100672.41
2018-08-18T11:23:00.823Z,100672.59
2018-08-18T11:25:32.139Z,100661.09
2018-08-18T11:28:01.219Z,100666.92
2018-08-18T11:30:30.204Z,100669.51
2018-08-18T11:32:59.784Z,100662.36
2018-08-18T11:35:29.020Z,100664.02
2018-08-18T11:38:03.927Z,100665.05
2018-08-18T11:40:33.508Z,100667.73
2018-08-18T11:43:03.442Z,100655.14
2018-08-18T11:45:33.566Z,100649.06
2018-08-18T11:48:26.173Z,100657.48
2018-08-18T11:50:55.993Z,100647.83
2018-08-18T11:53:25.511Z,100640.87
2018-08-18T11:55:55.061Z,100653.80
2018-08-18T11:58:24.889Z,100643.78
2018-08-18T12:00:58.909Z,100637.74
2018-08-18T12:03:31.761Z,100648.91
2018-08-18T12:06:02.644Z,100639.98
2018-08-18T12:08:32.841Z,100633.91
2018-08-18T12:11:03.945Z,100629.78
2018-08-18T12:13:38.003Z,100632.49
2018-08-18T12:16:11.012Z,100624.15
2018-08-18T12:18:41.160Z,100627.73
2018-08-18T12:21:10.132Z,100627.13
2018-08-18T12:23:43.549Z,100622.32
2018-08-18T12:26:22.405Z,100626.31
2018-08-18T12:28:55.204Z,100620.66
2018-08-18T12:31:25.271Z,100618.67
2018-08-18T12:33:54.118Z,100612.97
2018-08-18T12:36:23.412Z,100603.45
2018-08-18T12:38:54.813Z,100599.34
2018-08-18T12:41:24.267Z,100591.87
2018-08-18T12:43:55.076Z,100583.58
2018-08-18T12:46:29.558Z,100588.67
2018-08-18T12:48:58.331Z,100579.81
2018-08-18T12:51:27.688Z,100578.12
2018-08-18T12:53:57.886Z,100575.80
2018-08-18T12:56:28.672Z,100586.63
2018-08-18T12:58:57.459Z,100583.41
2018-08-18T13:01:38.332Z,100578.06
2018-08-18T13:04:10.612Z,100582.48
2018-08-18T13:06:41.896Z,100583.38
2018-08-18T13:09:12.409Z,100578.74
2018-08-18T13:11:41.840Z,100572.14
2018-08-18T13:14:10.742Z,100570.12
2018-08-18T13:16:40.272Z,100565.19
2018-08-18T13:19:09.595Z,100574.91
2018-08-18T13:21:38.343Z,100565.76
2018-08-18T13:24:07.199Z,100566.98
2018-08-18T13:26:35.960Z,100574.98
2018-08-18T13:29:04.903Z,100572.13
2018-08-18T13:31:43.708Z,100573.88
2018-08-18T13:34:14.779Z,100577.77
2018-08-18T13:36:44.335Z,100581.33
2018-08-18T13:39:17.465Z,100577.30
2018-08-18T13:41:48.250Z,100579.52
2018-08-18T13:44:27.532Z,100581.23
2018-08-18T13:46:56.964Z,100580.98
2018-08-18T13:49:26.643Z,100581.05
2018-08-18T13:51:56.131Z,100571.53
2018-08-18T13:54:25.194Z,100572.67
2018-08-18T13:56:54.781Z,100572.14
2018-08-18T13:59:43.250Z,100569.94
2018-08-18T14:02:12.623Z,100577.05
2018-08-18T14:04:42.297Z,100572.73
2018-08-18T14:07:11.670Z,100571.11
2018-08-18T14:09:44.408Z,100568.66
2018-08-18T14:12:15.598Z,100567.02
2018-08-18T14:14:46.899Z,100579.03
2018-08-18T14:17:17.030Z,100572.20
2018-08-18T14:19:45.928Z,100576.29
2018-08-18T14:22:18.246Z,100572.72
2018-08-18T14:24:47.489Z,100569.17
2018-08-18T14:27:19.115Z,100569.12
2018-08-18T14:29:48.567Z,100563.84
2018-08-18T14:32:25.348Z,100566.48
2018-08-18T14:35:07.039Z,100560.62
2018-08-18T14:37:38.456Z,100565.36
2018-08-18T14:40:11.332Z,100559.56
2018-08-18T14:42:40.474Z,100556.81
2018-08-18T14:45:12.048Z,100553.32
2018-08-18T14:47:41.557Z,100554.25
2018-08-18T14:50:24.180Z,100555.08
2018-08-18T14:52:53.518Z,100552.32
2018-08-18T14:55:22.252Z,100547.30
2018-08-18T14:57:56.933Z,100552.73
2018-08-18T15:00:25.802Z,100543.88
2018-08-18T15:02:55.344Z,100535.47
2018-08-18T15:05:24.167Z,100541.30
2018-08-18T15:07:55.535Z,100533.83
2018-08-18T15:10:34.568Z,100536.98
2018-08-18T15:13:04.203Z,100535.17
2018-08-18T15:15:34.301Z,100527.31
2018-08-18T15:18:06.376Z,100525.20
2018-08-18T15:20:36.289Z,100526.11
2018-08-18T15:23:05.991Z,100531.05
2018-08-18T15:25:35.683Z,100527.23
2018-08-18T15:28:05.911Z,100533.84
2018-08-18T15:30:35.972Z,100520.27
2018-08-18T15:33:04.968Z,100508.59
2018-08-18T15:35:36.465Z,100508.61
2018-08-18T15:38:06.050Z,100509.99
2018-08-18T15:40:37.008Z,100505.91
2018-08-18T15:43:05.910Z,100501.31
2018-08-18T15:45:44.662Z,100511.41
2018-08-18T15:48:14.447Z,100509.78
2018-08-18T15:50:43.254Z,100495.09
2018-08-18T15:53:12.498Z,100501.91
2018-08-18T15:55:42.021Z,100497.50
2018-08-18T15:58:11.387Z,100493.63
2018-08-18T16:00:40.488Z,100489.82
2018-08-18T16:03:10.165Z,100497.41
2018-08-18T16:05:38.928Z,100494.69
2018-08-18T16:08:07.716Z,100491.14
2018-08-18T16:10:36.589Z,100487.05
2018-08-18T16:13:05.473Z,100491.44
2018-08-18T16:15:34.832Z,100490.13
2018-08-18T16:18:04.488Z,100488.55
2018-08-18T16:20:33.997Z,100481.77
2018-08-18T16:23:03.296Z,100479.05
2018-08-18T16:25:36.479Z,100480.45
2018-08-18T16:28:06.319Z,100475.58
2018-08-18T16:30:35.476Z,100467.39
2018-08-18T16:33:11.658Z,100476.94
2018-08-18T16:35:41.859Z,100471.19
2018-08-18T16:38:11.215Z,100466.82
2018-08-18T16:40:40.859Z,100469.84
2018-08-18T16:43:11.064Z,100463.03
2018-08-18T16:45:39.955Z,100460.85
2018-08-18T16:48:11.119Z,100464.39
2018-08-18T16:50:40.862Z,100467.13
2018-08-18T16:53:11.490Z,100467.42
2018-08-18T16:55:44.530Z,100463.87
2018-08-18T16:58:14.029Z,100458.98
2018-08-18T17:00:58.694Z,100463.34
2018-08-18T17:03:34.957Z,100464.14
2018-08-18T17:06:04.968Z,100462.53
2018-08-18T17:08:33.762Z,100467.42
2018-08-18T17:11:02.697Z,100462.78
2018-08-18T17:13:34.775Z,100459.78
2018-08-18T17:16:04.986Z,100452.17
2018-08-18T17:18:34.669Z,100462.22
2018-08-18T17:21:05.743Z,100458.93
2018-08-18T17:23:35.776Z,100462.20
2018-08-18T17:26:04.559Z,100458.92
2018-08-18T17:28:33.836Z,100445.58
2018-08-18T17:31:03.918Z,100451.03
2018-08-18T17:33:33.066Z,100447.48
2018-08-18T17:36:01.923Z,100454.53
2018-08-18T17:38:30.847Z,100457.00
2018-08-18T17:41:00.679Z,100447.73
2018-08-18T17:43:29.528Z,100454.54
2018-08-18T17:46:00.131Z,100453.98
2018-08-18T17:48:29.991Z,100459.42
2018-08-18T17:50:58.829Z,100458.05
2018-08-18T17:53:28.196Z,100459.41
2018-08-18T17:56:03.781Z,100446.06
2018-08-18T17:58:32.631Z,100455.28
2018-08-18T18:01:01.909Z,100464.52
2018-08-18T18:03:31.429Z,100461.53
2018-08-18T18:06:00.156Z,100471.85
2018-08-18T18:08:28.883Z,100464.76
2018-08-18T18:10:57.829Z,100464.20
2018-08-18T18:13:27.614Z,100470.16
2018-08-18T18:15:57.221Z,100470.98
2018-08-18T18:18:46.496Z,100475.88
2018-08-18T18:21:15.413Z,100470.19
2018-08-18T18:23:44.238Z,100463.39
2018-08-18T18:26:13.048Z,100466.09
2018-08-18T18:28:41.945Z,100469.36
2018-08-18T18:31:10.695Z,100475.06
2018-08-18T18:33:39.552Z,100475.06
2018-08-18T18:36:08.331Z,100468.52
2018-08-18T18:38:52.512Z,100478.58
2018-08-18T18:41:22.199Z,100467.97
2018-08-18T18:43:59.790Z,100470.13
2018-08-18T18:46:29.292Z,100460.31
2018-08-18T18:48:58.216Z,100465.77
2018-08-18T18:51:27.941Z,100471.21
2018-08-18T18:53:58.092Z,100455.41
2018-08-18T18:56:27.476Z,100462.72
2018-08-18T18:58:56.270Z,100448.86
2018-08-18T19:01:25.039Z,100442.84
2018-08-18T19:03:54.326Z,100441.22
2018-08-18T19:06:23.087Z,100431.67
2018-08-18T19:08:59.977Z,100440.63
2018-08-18T19:11:28.994Z,100436.27
2018-08-18T19:13:58.062Z,100425.92
2018-08-18T19:16:27.391Z,100427.27
2018-08-18T19:18:56.708Z,100422.89
2018-08-18T19:21:34.220Z,100420.98
2018-08-18T19:24:08.875Z,100418.78
2018-08-18T19:26:56.187Z,100424.22
2018-08-18T19:29:26.377Z,100413.64
2018-08-18T19:31:57.919Z,100418.52
2018-08-18T19:34:26.680Z,100412.27
2018-08-18T19:37:09.606Z,100428.00
2018-08-18T19:39:39.829Z,100418.22
2018-08-18T19:42:13.943Z,100415.50
2018-08-18T19:44:44.893Z,100411.96
2018-08-18T19:47:19.352Z,100410.06
2018-08-18T19:49:48.626Z,100405.69
2018-08-18T19:52:21.598Z,100405.69
2018-08-18T19:54:51.347Z,100398.62
2018-08-18T19:57:37.948Z,100396.17
2018-08-18T20:00:17.055Z,100401.06
2018-08-18T20:03:10.126Z,100399.98
2018-08-18T20:05:38.963Z,100398.61
2018-08-18T20:08:07.828Z,100397.00
2018-08-18T20:10:43.579Z,100388.55
2018-08-18T20:13:12.975Z,100389.91
2018-08-18T20:15:44.869Z,100389.63
2018-08-18T20:18:13.633Z,100374.95
2018-08-18T20:20:42.348Z,100381.46
2018-08-18T20:23:11.225Z,100382.26
2018-08-18T20:25:40.063Z,100386.31
2018-08-18T20:28:08.940Z,100384.16
2018-08-18T20:30:37.733Z,100395.55
2018-08-18T20:33:07.308Z,100391.48
2018-08-18T20:35:36.409Z,100390.38
2018-08-18T20:38:05.199Z,100390.13
2018-08-18T20:40:34.904Z,100390.67
2018-08-18T20:43:03.650Z,100384.42
2018-08-18T20:45:52.918Z,100397.72
2018-08-18T20:51:28.280Z,100382.48
2018-08-18T20:53:57.712Z,100389.78
2018-08-18T20:56:26.988Z,100398.45
2018-08-18T20:58:55.728Z,100391.66
2018-08-18T21:01:31.012Z,100387.59
2018-08-18T21:04:00.620Z,100395.48
2018-08-18T21:06:29.604Z,100388.41
2018-08-18T21:08:58.384Z,100389.20
2018-08-18T21:11:27.185Z,100382.42
2018-08-18T21:13:57.390Z,100376.99
2018-08-18T21:16:26.925Z,100382.70
2018-08-18T21:18:55.663Z,100374.56
2018-08-18T21:21:35.703Z,100371.84
2018-08-18T21:24:04.704Z,100366.95
2018-08-18T21:26:34.103Z,100381.06
2018-08-18T21:29:02.981Z,100379.97
2018-08-18T21:31:33.342Z,100367.21
2018-08-18T21:34:03.612Z,100371.56
2018-08-18T21:36:32.741Z,100367.23
2018-08-18T21:39:03.974Z,100381.62
2018-08-18T21:41:33.758Z,100377.81
2018-08-18T21:44:02.481Z,100372.39
2018-08-18T21:46:31.999Z,100375.64
2018-08-18T21:49:02.236Z,100374.54
2018-08-18T21:51:31.898Z,100373.72
2018-08-18T21:54:01.155Z,100365.30
2018-08-18T21:56:36.799Z,100373.70
2018-08-18T21:59:06.960Z,100369.57
2018-08-18T22:01:35.874Z,100373.08
2018-08-18T22:04:05.470Z,100360.34
2018-08-18T22:06:34.305Z,100361.70
2018-08-18T22:09:21.992Z,100360.03
2018-08-18T22:11:50.917Z,100356.78
2018-08-18T22:14:20.239Z,100355.66
2018-08-18T22:16:54.743Z,100344.22
2018-08-18T22:19:24.661Z,100347.22
2018-08-18T22:21:53.474Z,100351.28
2018-08-18T22:24:22.463Z,100343.43
2018-08-18T22:26:51.459Z,100351.00
2018-08-18T22:29:24.037Z,100346.14
2018-08-18T22:31:53.040Z,100348.30
2018-08-18T22:34:22.416Z,100347.98
2018-08-18T22:36:53.904Z,100356.16
2018-08-18T22:39:23.607Z,100358.33
2018-08-18T22:41:52.350Z,100353.72
2018-08-18T22:44:21.181Z,100360.25
2018-08-18T22:46:50.323Z,100359.42
2018-08-18T22:49:19.918Z,100364.88
2018-08-18T22:51:49.431Z,100358.38
2018-08-18T22:54:19.112Z,100357.86
2018-08-18T22:56:54.272Z,100357.86
2018-08-18T22:59:22.987Z,100364.38
2018-08-18T23:01:51.720Z,100361.70
2018-08-18T23:04:40.506Z,100359.79
2018-08-18T23:07:09.519Z,100363.58
2018-08-18T23:09:38.282Z,100362.50
2018-08-18T23:12:08.033Z,100350.30
2018-08-18T23:14:38.091Z,100363.38
2018-08-18T23:17:09.059Z,100354.16
2018-08-18T23:19:37.989Z,100349.29
2018-08-18T23:22:06.960Z,100356.05
2018-08-18T23:24:38.697Z,100351.65
2018-08-18T23:27:07.596Z,100364.68
2018-08-18T23:29:36.440Z,100356.00
2018-08-18T23:32:13.327Z,100345.42
2018-08-18T23:34:42.172Z,100340.81
2018-08-18T23:37:16.259Z,100341.07
2018-08-18T23:39:45.759Z,100341.87
2018-08-18T23:42:17.853Z,100343.23
2018-08-18T23:44:47.409Z,100340.79
2018-08-18T23:47:17.367Z,100340.80
2018-08-18T23:49:46.611Z,100344.58
2018-08-18T23:52:16.339Z,100353.83
2018-08-18T23:54:45.247Z,100345.67
2018-08-18T23:57:16.698Z,100350.80
2018-08-18T23:59:46.435Z,100354.02
